Terminal Aerodrome Forecast
Issued by NWS Pocatello, ID

Home | Current Version | Previous Version | Text Only | Print | Product List | Glossary On
Versions: 1 2 3 4 5 6 7 8 9 10 11 12
000
FTUS45 KPIH 030520
TAFBYI
TAF
KBYI 030520Z 0306/0406 21006KT P6SM BKN150
     FM031500 25012KT P6SM SCT110 BKN150
     FM032000 27012KT P6SM VCTS SCT110CB BKN150
     FM040300 22009KT P6SM VCSH SCT110 BKN200=

USA.gov is the U.S. government's official web portal to all federal, state and local government web resources and services.